sensor_id;sensor_type;location;lat;lon;timestamp;P1;durP1;ratioP1;P2;durP2;ratioP2
20114;SDS011;10218;42.874;25.320;2022-12-01T00:01:01;16.53;;;9.63;;
20114;SDS011;10218;42.874;25.320;2022-12-01T00:03:28;18.53;;;11.17;;
20114;SDS011;10218;42.874;25.320;2022-12-01T00:06:00;18.80;;;11.03;;
20114;SDS011;10218;42.874;25.320;2022-12-01T00:08:29;17.93;;;10.37;;
20114;SDS011;10218;42.874;25.320;2022-12-01T00:11:04;20.80;;;10.33;;
20114;SDS011;10218;42.874;25.320;2022-12-01T00:13:33;20.57;;;11.47;;
20114;SDS011;10218;42.874;25.320;2022-12-01T00:16:10;20.77;;;10.57;;
20114;SDS011;10218;42.874;25.320;2022-12-01T00:18:42;20.83;;;10.27;;
20114;SDS011;10218;42.874;25.320;2022-12-01T00:21:13;16.13;;;8.90;;
20114;SDS011;10218;42.874;25.320;2022-12-01T00:23:47;15.77;;;8.60;;
20114;SDS011;10218;42.874;25.320;2022-12-01T00:26:16;16.40;;;9.30;;
20114;SDS011;10218;42.874;25.320;2022-12-01T00:28:48;20.07;;;10.57;;
20114;SDS011;10218;42.874;25.320;2022-12-01T00:31:17;20.67;;;9.63;;
20114;SDS011;10218;42.874;25.320;2022-12-01T00:33:45;17.97;;;10.87;;
20114;SDS011;10218;42.874;25.320;2022-12-01T00:36:12;17.27;;;10.57;;
20114;SDS011;10218;42.874;25.320;2022-12-01T00:38:40;17.50;;;11.17;;
20114;SDS011;10218;42.874;25.320;2022-12-01T00:41:07;19.00;;;11.00;;
20114;SDS011;10218;42.874;25.320;2022-12-01T00:43:34;20.90;;;12.00;;
20114;SDS011;10218;42.874;25.320;2022-12-01T00:46:02;19.63;;;10.17;;
20114;SDS011;10218;42.874;25.320;2022-12-01T00:48:29;23.03;;;10.57;;
20114;SDS011;10218;42.874;25.320;2022-12-01T00:50:56;18.43;;;9.17;;
20114;SDS011;10218;42.874;25.320;2022-12-01T00:53:23;19.10;;;9.20;;
20114;SDS011;10218;42.874;25.320;2022-12-01T00:55:51;17.03;;;8.70;;
20114;SDS011;10218;42.874;25.320;2022-12-01T00:58:21;18.30;;;8.80;;
20114;SDS011;10218;42.874;25.320;2022-12-01T01:00:57;19.20;;;9.70;;
20114;SDS011;10218;42.874;25.320;2022-12-01T01:03:26;20.13;;;9.20;;
20114;SDS011;10218;42.874;25.320;2022-12-01T01:05:54;18.33;;;9.37;;
20114;SDS011;10218;42.874;25.320;2022-12-01T01:08:21;17.67;;;9.57;;
20114;SDS011;10218;42.874;25.320;2022-12-01T01:10:48;14.50;;;8.93;;
20114;SDS011;10218;42.874;25.320;2022-12-01T01:13:16;14.07;;;8.67;;
20114;SDS011;10218;42.874;25.320;2022-12-01T01:15:43;16.13;;;9.33;;
20114;SDS011;10218;42.874;25.320;2022-12-01T01:18:10;15.37;;;9.27;;
20114;SDS011;10218;42.874;25.320;2022-12-01T01:20:38;15.07;;;9.30;;
20114;SDS011;10218;42.874;25.320;2022-12-01T01:23:05;18.97;;;9.53;;
20114;SDS011;10218;42.874;25.320;2022-12-01T01:25:32;15.17;;;9.17;;
20114;SDS011;10218;42.874;25.320;2022-12-01T01:27:59;14.57;;;8.20;;
20114;SDS011;10218;42.874;25.320;2022-12-01T01:30:26;14.80;;;9.10;;
20114;SDS011;10218;42.874;25.320;2022-12-01T01:32:53;15.73;;;8.83;;
20114;SDS011;10218;42.874;25.320;2022-12-01T01:35:21;17.50;;;9.00;;
20114;SDS011;10218;42.874;25.320;2022-12-01T01:37:48;18.73;;;8.43;;
20114;SDS011;10218;42.874;25.320;2022-12-01T01:40:16;14.97;;;8.00;;
20114;SDS011;10218;42.874;25.320;2022-12-01T01:42:44;12.50;;;7.40;;
20114;SDS011;10218;42.874;25.320;2022-12-01T01:45:21;10.10;;;5.83;;
20114;SDS011;10218;42.874;25.320;2022-12-01T01:47:51;12.10;;;6.30;;
20114;SDS011;10218;42.874;25.320;2022-12-01T01:50:20;7.03;;;4.50;;
20114;SDS011;10218;42.874;25.320;2022-12-01T01:52:57;8.10;;;4.80;;
20114;SDS011;10218;42.874;25.320;2022-12-01T01:55:27;10.80;;;5.80;;
20114;SDS011;10218;42.874;25.320;2022-12-01T01:57:56;10.57;;;6.17;;
20114;SDS011;10218;42.874;25.320;2022-12-01T02:00:23;13.03;;;6.40;;
20114;SDS011;10218;42.874;25.320;2022-12-01T02:02:50;10.67;;;6.03;;
20114;SDS011;10218;42.874;25.320;2022-12-01T02:05:21;8.40;;;5.50;;
20114;SDS011;10218;42.874;25.320;2022-12-01T02:07:51;9.00;;;5.07;;
20114;SDS011;10218;42.874;25.320;2022-12-01T02:10:21;6.80;;;4.53;;
20114;SDS011;10218;42.874;25.320;2022-12-01T02:34:55;10.70;;;7.50;;
20114;SDS011;10218;42.874;25.320;2022-12-01T02:43:02;9.23;;;6.27;;
20114;SDS011;10218;42.874;25.320;2022-12-01T02:45:38;6.17;;;3.93;;
20114;SDS011;10218;42.874;25.320;2022-12-01T02:48:13;6.37;;;3.30;;
20114;SDS011;10218;42.874;25.320;2022-12-01T02:50:44;5.37;;;3.10;;
20114;SDS011;10218;42.874;25.320;2022-12-01T02:53:13;5.73;;;3.40;;
20114;SDS011;10218;42.874;25.320;2022-12-01T02:55:52;6.47;;;3.87;;
20114;SDS011;10218;42.874;25.320;2022-12-01T02:58:21;7.17;;;4.03;;
20114;SDS011;10218;42.874;25.320;2022-12-01T03:03:46;4.70;;;3.33;;
20114;SDS011;10218;42.874;25.320;2022-12-01T03:11:52;10.60;;;4.63;;
20114;SDS011;10218;42.874;25.320;2022-12-01T03:14:44;5.80;;;4.13;;
20114;SDS011;10218;42.874;25.320;2022-12-01T03:17:22;7.23;;;3.80;;
20114;SDS011;10218;42.874;25.320;2022-12-01T03:19:57;6.70;;;4.30;;
20114;SDS011;10218;42.874;25.320;2022-12-01T03:22:48;5.97;;;3.87;;
20114;SDS011;10218;42.874;25.320;2022-12-01T03:25:20;6.70;;;4.03;;
20114;SDS011;10218;42.874;25.320;2022-12-01T03:27:51;6.70;;;4.30;;
20114;SDS011;10218;42.874;25.320;2022-12-01T03:30:42;10.13;;;5.10;;
20114;SDS011;10218;42.874;25.320;2022-12-01T03:33:14;8.83;;;5.03;;
20114;SDS011;10218;42.874;25.320;2022-12-01T03:36:21;8.23;;;4.60;;
20114;SDS011;10218;42.874;25.320;2022-12-01T03:38:47;8.27;;;4.70;;
20114;SDS011;10218;42.874;25.320;2022-12-01T03:41:21;7.80;;;4.70;;
20114;SDS011;10218;42.874;25.320;2022-12-01T03:44:02;7.57;;;4.40;;
20114;SDS011;10218;42.874;25.320;2022-12-01T03:46:53;9.57;;;5.57;;
20114;SDS011;10218;42.874;25.320;2022-12-01T03:49:32;11.17;;;5.63;;
20114;SDS011;10218;42.874;25.320;2022-12-01T03:55:05;9.33;;;6.43;;
20114;SDS011;10218;42.874;25.320;2022-12-01T03:57:46;6.10;;;4.60;;
20114;SDS011;10218;42.874;25.320;2022-12-01T04:00:20;5.97;;;4.20;;
20114;SDS011;10218;42.874;25.320;2022-12-01T04:02:53;5.63;;;3.80;;
20114;SDS011;10218;42.874;25.320;2022-12-01T04:05:22;5.03;;;3.40;;
20114;SDS011;10218;42.874;25.320;2022-12-01T04:07:51;7.30;;;4.20;;
20114;SDS011;10218;42.874;25.320;2022-12-01T04:10:18;7.00;;;5.20;;
20114;SDS011;10218;42.874;25.320;2022-12-01T04:12:45;9.87;;;5.90;;
20114;SDS011;10218;42.874;25.320;2022-12-01T04:15:13;7.53;;;5.40;;
20114;SDS011;10218;42.874;25.320;2022-12-01T04:17:40;8.37;;;5.10;;
20114;SDS011;10218;42.874;25.320;2022-12-01T04:20:12;8.40;;;5.33;;
20114;SDS011;10218;42.874;25.320;2022-12-01T04:22:40;9.83;;;5.97;;
20114;SDS011;10218;42.874;25.320;2022-12-01T04:25:07;7.13;;;5.07;;
20114;SDS011;10218;42.874;25.320;2022-12-01T04:27:35;7.93;;;4.83;;
20114;SDS011;10218;42.874;25.320;2022-12-01T04:30:04;8.63;;;4.57;;
20114;SDS011;10218;42.874;25.320;2022-12-01T04:32:36;10.53;;;5.30;;
20114;SDS011;10218;42.874;25.320;2022-12-01T04:35:04;12.37;;;5.27;;
20114;SDS011;10218;42.874;25.320;2022-12-01T04:37:33;11.17;;;6.13;;
20114;SDS011;10218;42.874;25.320;2022-12-01T04:40:00;16.97;;;8.57;;
20114;SDS011;10218;42.874;25.320;2022-12-01T04:42:27;19.30;;;9.57;;
20114;SDS011;10218;42.874;25.320;2022-12-01T04:44:55;19.40;;;10.37;;
20114;SDS011;10218;42.874;25.320;2022-12-01T04:47:22;15.17;;;9.10;;
20114;SDS011;10218;42.874;25.320;2022-12-01T04:49:49;16.03;;;9.07;;
20114;SDS011;10218;42.874;25.320;2022-12-01T04:52:16;14.70;;;9.03;;
20114;SDS011;10218;42.874;25.320;2022-12-01T04:54:43;12.43;;;7.80;;
20114;SDS011;10218;42.874;25.320;2022-12-01T04:57:10;13.27;;;7.77;;
20114;SDS011;10218;42.874;25.320;2022-12-01T04:59:37;7.77;;;5.60;;
20114;SDS011;10218;42.874;25.320;2022-12-01T05:02:04;11.73;;;6.20;;
20114;SDS011;10218;42.874;25.320;2022-12-01T05:04:32;9.93;;;6.43;;
20114;SDS011;10218;42.874;25.320;2022-12-01T05:06:59;12.33;;;7.90;;
20114;SDS011;10218;42.874;25.320;2022-12-01T05:09:26;10.30;;;7.17;;
20114;SDS011;10218;42.874;25.320;2022-12-01T05:11:53;10.37;;;7.17;;
20114;SDS011;10218;42.874;25.320;2022-12-01T05:14:20;13.23;;;8.33;;
20114;SDS011;10218;42.874;25.320;2022-12-01T05:16:47;17.13;;;9.73;;
20114;SDS011;10218;42.874;25.320;2022-12-01T05:19:14;13.00;;;7.43;;
20114;SDS011;10218;42.874;25.320;2022-12-01T05:22:00;13.97;;;8.80;;
20114;SDS011;10218;42.874;25.320;2022-12-01T05:24:28;10.90;;;7.47;;
20114;SDS011;10218;42.874;25.320;2022-12-01T05:26:54;16.13;;;8.87;;
20114;SDS011;10218;42.874;25.320;2022-12-01T05:29:21;15.27;;;9.93;;
20114;SDS011;10218;42.874;25.320;2022-12-01T05:31:49;19.50;;;11.73;;
20114;SDS011;10218;42.874;25.320;2022-12-01T05:34:16;19.80;;;11.10;;
20114;SDS011;10218;42.874;25.320;2022-12-01T05:36:43;22.07;;;12.87;;
20114;SDS011;10218;42.874;25.320;2022-12-01T05:39:10;20.63;;;12.30;;
20114;SDS011;10218;42.874;25.320;2022-12-01T05:41:37;24.23;;;13.17;;
20114;SDS011;10218;42.874;25.320;2022-12-01T05:44:04;16.73;;;10.40;;
20114;SDS011;10218;42.874;25.320;2022-12-01T05:46:31;28.90;;;13.40;;
20114;SDS011;10218;42.874;25.320;2022-12-01T05:48:58;33.47;;;14.60;;
20114;SDS011;10218;42.874;25.320;2022-12-01T05:51:25;38.87;;;15.57;;
20114;SDS011;10218;42.874;25.320;2022-12-01T05:53:53;38.83;;;16.80;;
20114;SDS011;10218;42.874;25.320;2022-12-01T05:56:20;36.07;;;17.57;;
20114;SDS011;10218;42.874;25.320;2022-12-01T05:58:47;30.07;;;14.60;;
20114;SDS011;10218;42.874;25.320;2022-12-01T06:01:14;21.70;;;12.33;;
20114;SDS011;10218;42.874;25.320;2022-12-01T06:03:42;21.33;;;12.13;;
20114;SDS011;10218;42.874;25.320;2022-12-01T06:06:09;18.60;;;10.43;;
20114;SDS011;10218;42.874;25.320;2022-12-01T06:08:36;20.67;;;11.47;;
20114;SDS011;10218;42.874;25.320;2022-12-01T06:11:03;18.93;;;10.97;;
20114;SDS011;10218;42.874;25.320;2022-12-01T06:13:30;24.67;;;11.60;;
20114;SDS011;10218;42.874;25.320;2022-12-01T06:16:00;23.50;;;11.50;;
20114;SDS011;10218;42.874;25.320;2022-12-01T06:18:31;21.53;;;12.50;;
20114;SDS011;10218;42.874;25.320;2022-12-01T06:21:00;21.37;;;11.13;;
20114;SDS011;10218;42.874;25.320;2022-12-01T06:23:28;19.57;;;9.43;;
20114;SDS011;10218;42.874;25.320;2022-12-01T06:25:56;17.23;;;10.70;;
20114;SDS011;10218;42.874;25.320;2022-12-01T06:28:23;15.93;;;9.63;;
20114;SDS011;10218;42.874;25.320;2022-12-01T06:30:50;15.03;;;9.77;;
20114;SDS011;10218;42.874;25.320;2022-12-01T06:33:17;15.63;;;9.47;;
20114;SDS011;10218;42.874;25.320;2022-12-01T06:35:44;14.30;;;9.53;;
20114;SDS011;10218;42.874;25.320;2022-12-01T06:38:11;16.57;;;9.57;;
20114;SDS011;10218;42.874;25.320;2022-12-01T06:40:38;17.50;;;10.70;;
20114;SDS011;10218;42.874;25.320;2022-12-01T06:43:06;21.73;;;11.90;;
20114;SDS011;10218;42.874;25.320;2022-12-01T06:45:32;20.33;;;12.60;;
20114;SDS011;10218;42.874;25.320;2022-12-01T06:48:00;18.30;;;10.17;;
20114;SDS011;10218;42.874;25.320;2022-12-01T06:50:27;17.80;;;10.50;;
20114;SDS011;10218;42.874;25.320;2022-12-01T06:52:54;15.17;;;9.67;;
20114;SDS011;10218;42.874;25.320;2022-12-01T06:55:21;31.60;;;15.87;;
20114;SDS011;10218;42.874;25.320;2022-12-01T06:57:48;24.33;;;13.03;;
20114;SDS011;10218;42.874;25.320;2022-12-01T07:00:15;26.33;;;13.93;;
20114;SDS011;10218;42.874;25.320;2022-12-01T07:02:43;20.60;;;12.87;;
20114;SDS011;10218;42.874;25.320;2022-12-01T07:05:10;22.90;;;14.03;;
20114;SDS011;10218;42.874;25.320;2022-12-01T07:07:37;20.83;;;12.37;;
20114;SDS011;10218;42.874;25.320;2022-12-01T07:10:05;20.47;;;12.50;;
20114;SDS011;10218;42.874;25.320;2022-12-01T07:12:34;20.23;;;11.80;;
20114;SDS011;10218;42.874;25.320;2022-12-01T07:15:01;19.03;;;12.07;;
20114;SDS011;10218;42.874;25.320;2022-12-01T07:17:28;22.93;;;13.27;;
20114;SDS011;10218;42.874;25.320;2022-12-01T07:19:56;26.23;;;15.40;;
20114;SDS011;10218;42.874;25.320;2022-12-01T07:22:23;37.87;;;22.13;;
20114;SDS011;10218;42.874;25.320;2022-12-01T07:24:52;23.57;;;14.10;;
20114;SDS011;10218;42.874;25.320;2022-12-01T07:27:19;34.50;;;18.83;;
20114;SDS011;10218;42.874;25.320;2022-12-01T07:29:46;23.90;;;12.60;;
20114;SDS011;10218;42.874;25.320;2022-12-01T07:32:14;20.13;;;11.67;;
20114;SDS011;10218;42.874;25.320;2022-12-01T07:34:41;24.73;;;13.53;;
20114;SDS011;10218;42.874;25.320;2022-12-01T07:37:08;25.07;;;14.00;;
20114;SDS011;10218;42.874;25.320;2022-12-01T07:39:35;27.43;;;14.40;;
20114;SDS011;10218;42.874;25.320;2022-12-01T07:42:02;28.97;;;12.77;;
20114;SDS011;10218;42.874;25.320;2022-12-01T07:44:29;24.07;;;12.03;;
20114;SDS011;10218;42.874;25.320;2022-12-01T07:46:56;20.80;;;11.00;;
20114;SDS011;10218;42.874;25.320;2022-12-01T07:49:24;17.90;;;10.63;;
20114;SDS011;10218;42.874;25.320;2022-12-01T07:51:51;17.17;;;10.23;;
20114;SDS011;10218;42.874;25.320;2022-12-01T07:54:18;17.00;;;10.07;;
20114;SDS011;10218;42.874;25.320;2022-12-01T07:56:47;17.83;;;9.30;;
20114;SDS011;10218;42.874;25.320;2022-12-01T07:59:14;16.57;;;10.47;;
20114;SDS011;10218;42.874;25.320;2022-12-01T08:01:41;18.60;;;9.87;;
20114;SDS011;10218;42.874;25.320;2022-12-01T08:04:10;22.77;;;13.23;;
20114;SDS011;10218;42.874;25.320;2022-12-01T08:06:37;19.20;;;11.97;;
20114;SDS011;10218;42.874;25.320;2022-12-01T08:09:04;16.67;;;9.90;;
20114;SDS011;10218;42.874;25.320;2022-12-01T08:11:31;24.13;;;13.23;;
20114;SDS011;10218;42.874;25.320;2022-12-01T08:13:59;18.47;;;11.00;;
20114;SDS011;10218;42.874;25.320;2022-12-01T08:16:26;24.97;;;14.50;;
20114;SDS011;10218;42.874;25.320;2022-12-01T08:18:53;21.50;;;13.27;;
20114;SDS011;10218;42.874;25.320;2022-12-01T08:21:21;18.27;;;11.03;;
20114;SDS011;10218;42.874;25.320;2022-12-01T08:23:55;22.03;;;12.77;;
20114;SDS011;10218;42.874;25.320;2022-12-01T08:26:24;20.37;;;12.43;;
20114;SDS011;10218;42.874;25.320;2022-12-01T08:28:51;22.73;;;13.17;;
20114;SDS011;10218;42.874;25.320;2022-12-01T08:31:20;26.33;;;13.47;;
20114;SDS011;10218;42.874;25.320;2022-12-01T08:33:52;25.53;;;13.57;;
20114;SDS011;10218;42.874;25.320;2022-12-01T08:36:20;24.63;;;13.93;;
20114;SDS011;10218;42.874;25.320;2022-12-01T08:38:49;31.70;;;15.43;;
20114;SDS011;10218;42.874;25.320;2022-12-01T08:41:18;28.63;;;16.50;;
20114;SDS011;10218;42.874;25.320;2022-12-01T08:43:46;32.27;;;14.40;;
20114;SDS011;10218;42.874;25.320;2022-12-01T08:46:32;24.83;;;14.67;;
20114;SDS011;10218;42.874;25.320;2022-12-01T08:49:00;32.47;;;18.10;;
20114;SDS011;10218;42.874;25.320;2022-12-01T08:51:30;32.50;;;16.17;;
20114;SDS011;10218;42.874;25.320;2022-12-01T08:53:59;32.00;;;16.47;;
20114;SDS011;10218;42.874;25.320;2022-12-01T08:56:28;30.87;;;16.17;;
20114;SDS011;10218;42.874;25.320;2022-12-01T08:58:57;34.67;;;16.87;;
20114;SDS011;10218;42.874;25.320;2022-12-01T09:01:25;26.77;;;14.50;;
20114;SDS011;10218;42.874;25.320;2022-12-01T09:03:53;25.63;;;14.30;;
20114;SDS011;10218;42.874;25.320;2022-12-01T09:06:36;34.67;;;17.40;;
20114;SDS011;10218;42.874;25.320;2022-12-01T09:09:09;28.57;;;15.47;;
20114;SDS011;10218;42.874;25.320;2022-12-01T09:11:39;23.57;;;13.60;;
20114;SDS011;10218;42.874;25.320;2022-12-01T09:14:10;25.20;;;13.87;;
20114;SDS011;10218;42.874;25.320;2022-12-01T09:16:38;28.67;;;14.97;;
20114;SDS011;10218;42.874;25.320;2022-12-01T09:19:05;27.43;;;14.90;;
20114;SDS011;10218;42.874;25.320;2022-12-01T09:21:33;23.47;;;13.77;;
20114;SDS011;10218;42.874;25.320;2022-12-01T09:24:02;22.67;;;12.40;;
20114;SDS011;10218;42.874;25.320;2022-12-01T09:26:32;30.73;;;17.93;;
20114;SDS011;10218;42.874;25.320;2022-12-01T09:29:01;21.30;;;12.50;;
20114;SDS011;10218;42.874;25.320;2022-12-01T09:31:30;21.67;;;12.80;;
20114;SDS011;10218;42.874;25.320;2022-12-01T09:33:59;23.57;;;12.80;;
20114;SDS011;10218;42.874;25.320;2022-12-01T09:36:28;23.27;;;13.63;;
20114;SDS011;10218;42.874;25.320;2022-12-01T09:38:57;26.97;;;14.33;;
20114;SDS011;10218;42.874;25.320;2022-12-01T09:46:53;26.67;;;16.33;;
20114;SDS011;10218;42.874;25.320;2022-12-01T09:49:25;22.77;;;14.33;;
20114;SDS011;10218;42.874;25.320;2022-12-01T09:52:03;23.43;;;14.53;;
20114;SDS011;10218;42.874;25.320;2022-12-01T09:54:31;30.90;;;17.53;;
20114;SDS011;10218;42.874;25.320;2022-12-01T09:56:58;25.17;;;15.33;;
20114;SDS011;10218;42.874;25.320;2022-12-01T09:59:26;24.40;;;13.30;;
20114;SDS011;10218;42.874;25.320;2022-12-01T10:02:02;24.10;;;14.23;;
20114;SDS011;10218;42.874;25.320;2022-12-01T10:04:40;26.33;;;15.73;;
20114;SDS011;10218;42.874;25.320;2022-12-01T10:10:12;56.47;;;31.60;;
20114;SDS011;10218;42.874;25.320;2022-12-01T10:12:39;37.10;;;22.03;;
20114;SDS011;10218;42.874;25.320;2022-12-01T10:23:26;24.30;;;13.37;;
20114;SDS011;10218;42.874;25.320;2022-12-01T10:34:42;25.30;;;14.50;;
20114;SDS011;10218;42.874;25.320;2022-12-01T10:37:16;18.20;;;10.07;;
20114;SDS011;10218;42.874;25.320;2022-12-01T10:39:47;17.90;;;10.77;;
20114;SDS011;10218;42.874;25.320;2022-12-01T10:42:25;19.33;;;11.53;;
20114;SDS011;10218;42.874;25.320;2022-12-01T10:45:03;21.87;;;13.03;;
20114;SDS011;10218;42.874;25.320;2022-12-01T10:47:33;26.07;;;16.07;;
20114;SDS011;10218;42.874;25.320;2022-12-01T10:50:02;24.53;;;14.20;;
20114;SDS011;10218;42.874;25.320;2022-12-01T10:52:37;26.23;;;13.90;;
20114;SDS011;10218;42.874;25.320;2022-12-01T10:57:48;22.80;;;12.90;;
20114;SDS011;10218;42.874;25.320;2022-12-01T11:00:21;18.37;;;11.77;;
20114;SDS011;10218;42.874;25.320;2022-12-01T11:03:17;27.67;;;15.07;;
20114;SDS011;10218;42.874;25.320;2022-12-01T11:05:55;33.13;;;19.60;;
20114;SDS011;10218;42.874;25.320;2022-12-01T11:08:44;23.83;;;14.60;;
20114;SDS011;10218;42.874;25.320;2022-12-01T11:11:36;21.67;;;13.13;;
20114;SDS011;10218;42.874;25.320;2022-12-01T11:14:15;19.63;;;12.87;;
20114;SDS011;10218;42.874;25.320;2022-12-01T11:16:45;20.40;;;11.93;;
20114;SDS011;10218;42.874;25.320;2022-12-01T11:19:33;26.40;;;13.77;;
20114;SDS011;10218;42.874;25.320;2022-12-01T11:22:01;23.37;;;13.40;;
20114;SDS011;10218;42.874;25.320;2022-12-01T11:27:27;19.13;;;11.30;;
20114;SDS011;10218;42.874;25.320;2022-12-01T11:30:00;17.33;;;10.23;;
20114;SDS011;10218;42.874;25.320;2022-12-01T11:32:31;18.47;;;10.83;;
20114;SDS011;10218;42.874;25.320;2022-12-01T11:35:17;20.23;;;11.73;;
20114;SDS011;10218;42.874;25.320;2022-12-01T11:37:47;19.40;;;11.73;;
20114;SDS011;10218;42.874;25.320;2022-12-01T11:40:34;17.60;;;10.57;;
20114;SDS011;10218;42.874;25.320;2022-12-01T11:43:13;20.57;;;12.90;;
20114;SDS011;10218;42.874;25.320;2022-12-01T11:45:48;57.77;;;31.20;;
20114;SDS011;10218;42.874;25.320;2022-12-01T11:51:05;29.07;;;18.87;;
20114;SDS011;10218;42.874;25.320;2022-12-01T11:53:38;19.43;;;13.27;;
20114;SDS011;10218;42.874;25.320;2022-12-01T11:56:22;16.73;;;11.27;;
20114;SDS011;10218;42.874;25.320;2022-12-01T11:59:04;17.43;;;11.03;;
20114;SDS011;10218;42.874;25.320;2022-12-01T12:01:44;16.97;;;10.93;;
20114;SDS011;10218;42.874;25.320;2022-12-01T12:16:47;16.73;;;11.53;;
20114;SDS011;10218;42.874;25.320;2022-12-01T12:21:52;28.20;;;18.00;;
20114;SDS011;10218;42.874;25.320;2022-12-01T12:30:10;26.53;;;16.23;;
20114;SDS011;10218;42.874;25.320;2022-12-01T12:35:59;17.00;;;10.43;;
20114;SDS011;10218;42.874;25.320;2022-12-01T12:38:42;15.30;;;10.33;;
20114;SDS011;10218;42.874;25.320;2022-12-01T12:51:48;21.50;;;11.77;;
20114;SDS011;10218;42.874;25.320;2022-12-01T12:54:30;25.20;;;14.77;;
20114;SDS011;10218;42.874;25.320;2022-12-01T12:57:03;24.07;;;14.10;;
20114;SDS011;10218;42.874;25.320;2022-12-01T13:02:09;17.20;;;10.87;;
20114;SDS011;10218;42.874;25.320;2022-12-01T13:10:09;20.30;;;13.03;;
20114;SDS011;10218;42.874;25.320;2022-12-01T13:12:49;23.57;;;13.57;;
20114;SDS011;10218;42.874;25.320;2022-12-01T13:15:23;25.23;;;13.17;;
20114;SDS011;10218;42.874;25.320;2022-12-01T13:18:02;26.07;;;14.73;;
20114;SDS011;10218;42.874;25.320;2022-12-01T13:20:39;18.23;;;10.90;;
20114;SDS011;10218;42.874;25.320;2022-12-01T13:23:07;21.77;;;11.73;;
20114;SDS011;10218;42.874;25.320;2022-12-01T13:25:40;13.73;;;8.50;;
20114;SDS011;10218;42.874;25.320;2022-12-01T13:28:19;12.97;;;8.80;;
20114;SDS011;10218;42.874;25.320;2022-12-01T13:31:04;15.63;;;9.67;;
20114;SDS011;10218;42.874;25.320;2022-12-01T13:33:43;16.23;;;9.90;;
20114;SDS011;10218;42.874;25.320;2022-12-01T13:36:20;18.80;;;10.87;;
20114;SDS011;10218;42.874;25.320;2022-12-01T13:39:21;18.63;;;10.03;;
20114;SDS011;10218;42.874;25.320;2022-12-01T13:42:02;24.50;;;13.17;;
20114;SDS011;10218;42.874;25.320;2022-12-01T13:44:49;22.37;;;12.77;;
20114;SDS011;10218;42.874;25.320;2022-12-01T13:55:54;18.17;;;12.67;;
20114;SDS011;10218;42.874;25.320;2022-12-01T14:03:52;21.30;;;13.87;;
20114;SDS011;10218;42.874;25.320;2022-12-01T14:09:03;30.50;;;19.07;;
20114;SDS011;10218;42.874;25.320;2022-12-01T14:11:32;24.43;;;16.13;;
20114;SDS011;10218;42.874;25.320;2022-12-01T14:14:02;23.67;;;13.50;;
20114;SDS011;10218;42.874;25.320;2022-12-01T14:16:54;27.97;;;14.83;;
20114;SDS011;10218;42.874;25.320;2022-12-01T14:22:31;17.47;;;12.20;;
20114;SDS011;10218;42.874;25.320;2022-12-01T14:27:45;22.00;;;14.90;;
20114;SDS011;10218;42.874;25.320;2022-12-01T14:39:00;40.07;;;25.90;;
20114;SDS011;10218;42.874;25.320;2022-12-01T14:44:04;28.03;;;17.10;;
20114;SDS011;10218;42.874;25.320;2022-12-01T14:47:11;34.63;;;20.40;;
20114;SDS011;10218;42.874;25.320;2022-12-01T14:49:46;31.27;;;19.83;;
20114;SDS011;10218;42.874;25.320;2022-12-01T14:55:15;21.03;;;14.10;;
20114;SDS011;10218;42.874;25.320;2022-12-01T14:57:50;32.87;;;20.33;;
20114;SDS011;10218;42.874;25.320;2022-12-01T15:00:25;20.30;;;11.80;;
20114;SDS011;10218;42.874;25.320;2022-12-01T15:03:01;18.00;;;11.60;;
20114;SDS011;10218;42.874;25.320;2022-12-01T15:05:36;18.73;;;11.60;;
20114;SDS011;10218;42.874;25.320;2022-12-01T15:08:28;19.97;;;11.30;;
20114;SDS011;10218;42.874;25.320;2022-12-01T15:11:21;14.23;;;8.50;;
20114;SDS011;10218;42.874;25.320;2022-12-01T15:13:52;17.03;;;10.73;;
20114;SDS011;10218;42.874;25.320;2022-12-01T15:16:22;14.50;;;9.17;;
20114;SDS011;10218;42.874;25.320;2022-12-01T15:18:55;19.77;;;13.87;;
20114;SDS011;10218;42.874;25.320;2022-12-01T15:26:31;17.53;;;11.60;;
20114;SDS011;10218;42.874;25.320;2022-12-01T15:31:40;23.90;;;14.90;;
20114;SDS011;10218;42.874;25.320;2022-12-01T15:34:14;24.60;;;15.53;;
20114;SDS011;10218;42.874;25.320;2022-12-01T15:36:45;99.60;;;50.03;;
20114;SDS011;10218;42.874;25.320;2022-12-01T15:39:17;184.00;;;96.93;;
20114;SDS011;10218;42.874;25.320;2022-12-01T15:41:47;42.03;;;26.27;;
20114;SDS011;10218;42.874;25.320;2022-12-01T15:44:26;27.57;;;17.63;;
20114;SDS011;10218;42.874;25.320;2022-12-01T15:50:24;21.90;;;13.30;;
20114;SDS011;10218;42.874;25.320;2022-12-01T15:55:53;14.70;;;9.00;;
20114;SDS011;10218;42.874;25.320;2022-12-01T15:58:25;15.87;;;8.87;;
20114;SDS011;10218;42.874;25.320;2022-12-01T16:00:57;14.30;;;8.60;;
20114;SDS011;10218;42.874;25.320;2022-12-01T16:03:27;14.43;;;8.97;;
20114;SDS011;10218;42.874;25.320;2022-12-01T16:05:54;18.40;;;12.00;;
20114;SDS011;10218;42.874;25.320;2022-12-01T16:08:24;19.10;;;11.93;;
20114;SDS011;10218;42.874;25.320;2022-12-01T16:11:13;22.70;;;14.50;;
20114;SDS011;10218;42.874;25.320;2022-12-01T16:13:46;25.30;;;14.50;;
20114;SDS011;10218;42.874;25.320;2022-12-01T16:18:51;19.13;;;13.27;;
20114;SDS011;10218;42.874;25.320;2022-12-01T16:21:21;20.77;;;12.13;;
20114;SDS011;10218;42.874;25.320;2022-12-01T16:23:56;20.93;;;12.87;;
20114;SDS011;10218;42.874;25.320;2022-12-01T16:26:26;19.47;;;12.87;;
20114;SDS011;10218;42.874;25.320;2022-12-01T16:28:54;19.83;;;13.60;;
20114;SDS011;10218;42.874;25.320;2022-12-01T16:31:22;17.80;;;11.17;;
20114;SDS011;10218;42.874;25.320;2022-12-01T16:33:58;28.80;;;17.57;;
20114;SDS011;10218;42.874;25.320;2022-12-01T16:36:32;25.50;;;16.23;;
20114;SDS011;10218;42.874;25.320;2022-12-01T16:38:59;21.40;;;12.83;;
20114;SDS011;10218;42.874;25.320;2022-12-01T16:41:33;20.70;;;12.33;;
20114;SDS011;10218;42.874;25.320;2022-12-01T16:44:05;26.20;;;14.33;;
20114;SDS011;10218;42.874;25.320;2022-12-01T16:46:56;29.87;;;18.00;;
20114;SDS011;10218;42.874;25.320;2022-12-01T16:49:23;35.23;;;19.30;;
20114;SDS011;10218;42.874;25.320;2022-12-01T16:51:51;36.00;;;18.77;;
20114;SDS011;10218;42.874;25.320;2022-12-01T16:54:22;33.40;;;19.47;;
20114;SDS011;10218;42.874;25.320;2022-12-01T16:56:49;25.40;;;15.43;;
20114;SDS011;10218;42.874;25.320;2022-12-01T16:59:16;27.73;;;16.63;;
20114;SDS011;10218;42.874;25.320;2022-12-01T17:01:43;28.57;;;17.77;;
20114;SDS011;10218;42.874;25.320;2022-12-01T17:04:11;29.27;;;18.67;;
20114;SDS011;10218;42.874;25.320;2022-12-01T17:06:38;32.83;;;20.53;;
20114;SDS011;10218;42.874;25.320;2022-12-01T17:09:05;38.40;;;22.30;;
20114;SDS011;10218;42.874;25.320;2022-12-01T17:11:32;38.30;;;22.33;;
20114;SDS011;10218;42.874;25.320;2022-12-01T17:13:59;40.23;;;23.47;;
20114;SDS011;10218;42.874;25.320;2022-12-01T17:16:26;42.17;;;23.53;;
20114;SDS011;10218;42.874;25.320;2022-12-01T17:18:53;38.73;;;22.57;;
20114;SDS011;10218;42.874;25.320;2022-12-01T17:21:20;34.87;;;20.50;;
20114;SDS011;10218;42.874;25.320;2022-12-01T17:23:47;45.07;;;21.23;;
20114;SDS011;10218;42.874;25.320;2022-12-01T17:26:15;44.53;;;26.00;;